createdAt,value
2023-01-28T00:00:06.928Z,-2.57
2023-01-28T00:02:36.833Z,-2.57
2023-01-28T00:05:10.084Z,-2.60
2023-01-28T00:07:40.026Z,-2.47
2023-01-28T00:10:10.663Z,-2.53
2023-01-28T00:12:40.236Z,-2.53
2023-01-28T00:15:10.959Z,-2.58
2023-01-28T00:17:40.733Z,-2.67
2023-01-28T00:20:14.480Z,-2.64
2023-01-28T00:22:44.036Z,-2.74
2023-01-28T00:25:13.816Z,-2.52
2023-01-28T00:27:43.727Z,-2.50
2023-01-28T00:30:14.791Z,-2.46
2023-01-28T00:32:44.666Z,-2.53
2023-01-28T00:35:18.311Z,-2.57
2023-01-28T00:37:48.905Z,-2.46
2023-01-28T00:40:18.754Z,-2.64
2023-01-28T00:42:48.325Z,-2.62
2023-01-28T00:45:18.550Z,-2.60
2023-01-28T00:47:48.380Z,-2.51
2023-01-28T00:50:21.487Z,-2.53
2023-01-28T00:52:51.409Z,-2.62
2023-01-28T00:55:21.830Z,-2.58
2023-01-28T00:57:51.586Z,-2.69
2023-01-28T01:00:27.282Z,-2.43
2023-01-28T01:02:57.586Z,-2.38
2023-01-28T01:05:29.773Z,-2.28
2023-01-28T01:07:59.284Z,-2.56
2023-01-28T01:10:29.188Z,-2.48
2023-01-28T01:12:59.270Z,-2.56
2023-01-28T01:15:29.074Z,-2.67
2023-01-28T01:17:59.363Z,-2.66
2023-01-28T01:20:33.680Z,-2.59
2023-01-28T01:23:03.193Z,-2.44
2023-01-28T01:25:32.735Z,-2.63
2023-01-28T01:28:02.276Z,-2.72
2023-01-28T01:30:31.838Z,-2.72
2023-01-28T01:33:01.398Z,-2.63
2023-01-28T01:35:33.519Z,-2.64
2023-01-28T01:38:03.079Z,-2.80
2023-01-28T01:40:33.704Z,-2.85
2023-01-28T01:43:03.435Z,-2.87
2023-01-28T01:45:36.712Z,-3.12
2023-01-28T01:48:12.288Z,-2.93
2023-01-28T01:50:57.137Z,-2.87
2023-01-28T01:53:29.700Z,-2.89
2023-01-28T01:56:03.921Z,-3.52
2023-01-28T01:58:38.359Z,-2.83
2023-01-28T02:01:09.857Z,-2.92
2023-01-28T02:03:46.755Z,-3.01
2023-01-28T02:06:18.965Z,-2.81
2023-01-28T02:08:48.519Z,-2.74
2023-01-28T02:11:20.164Z,-2.77
2023-01-28T02:13:56.903Z,-2.86
2023-01-28T02:16:27.546Z,-2.60
2023-01-28T02:18:57.250Z,-2.53
2023-01-28T02:21:58.895Z,-2.58
2023-01-28T02:24:54.623Z,-2.71
2023-01-28T02:27:32.989Z,-2.76
2023-01-28T02:30:13.091Z,-2.78
2023-01-28T02:32:48.649Z,-2.85
2023-01-28T02:35:25.309Z,-2.61
2023-01-28T02:37:58.310Z,-2.61
2023-01-28T02:40:58.515Z,-2.61
2023-01-28T02:43:36.104Z,-2.55
2023-01-28T02:46:30.994Z,-2.56
2023-01-28T02:49:01.467Z,-2.73
2023-01-28T02:51:43.100Z,-2.55
2023-01-28T02:54:17.323Z,-2.99
2023-01-28T02:56:55.662Z,-2.72
2023-01-28T02:59:37.149Z,-2.62
2023-01-28T03:02:21.932Z,-2.74
2023-01-28T03:04:57.514Z,-2.66
2023-01-28T03:07:30.533Z,-2.57
2023-01-28T03:10:04.344Z,-2.58
2023-01-28T03:12:48.001Z,-3.01
2023-01-28T03:15:32.691Z,-2.84
2023-01-28T03:18:22.539Z,-2.78
2023-01-28T03:21:10.583Z,-2.60
2023-01-28T03:23:56.939Z,-2.66
2023-01-28T03:26:42.091Z,-2.76
2023-01-28T03:29:27.845Z,-2.76
2023-01-28T03:32:22.873Z,-2.74
2023-01-28T03:35:08.761Z,-2.58
2023-01-28T03:37:38.491Z,-2.74
2023-01-28T03:40:15.853Z,-2.77
2023-01-28T03:42:46.575Z,-2.75
2023-01-28T03:45:35.926Z,-2.77
2023-01-28T03:48:08.185Z,-2.81
2023-01-28T03:50:40.445Z,-2.96
2023-01-28T03:53:16.936Z,-2.65
2023-01-28T03:55:56.688Z,-2.71
2023-01-28T03:58:47.884Z,-2.83
2023-01-28T04:01:18.520Z,-2.95
2023-01-28T04:03:48.326Z,-2.74
2023-01-28T04:06:24.927Z,-2.63
2023-01-28T04:09:24.108Z,-2.70
2023-01-28T04:12:07.887Z,-2.62
2023-01-28T04:14:44.371Z,-2.76
2023-01-28T04:17:18.423Z,-2.81
2023-01-28T04:19:49.298Z,-2.80
2023-01-28T04:22:22.965Z,-2.84
2023-01-28T04:24:53.750Z,-2.92
2023-01-28T04:27:24.206Z,-2.89
2023-01-28T04:29:53.945Z,-2.76
2023-01-28T04:32:40.835Z,-2.82
2023-01-28T04:35:33.160Z,-2.83
2023-01-28T04:38:30.106Z,-2.68
2023-01-28T04:41:12.830Z,-2.74
2023-01-28T04:43:42.544Z,-2.86
2023-01-28T04:46:29.799Z,-2.95
2023-01-28T04:49:12.312Z,-3.01
2023-01-28T04:51:53.243Z,-2.72
2023-01-28T04:54:34.173Z,-2.78
2023-01-28T04:57:05.735Z,-2.78
2023-01-28T04:59:35.843Z,-2.85
2023-01-28T05:02:05.485Z,-2.93
2023-01-28T05:04:35.199Z,-2.86
2023-01-28T05:07:04.965Z,-2.89
2023-01-28T05:09:38.814Z,-3.03
2023-01-28T05:12:09.080Z,-2.68
2023-01-28T05:14:40.680Z,-3.26
2023-01-28T05:17:16.665Z,-2.84
2023-01-28T05:19:47.727Z,-2.85
2023-01-28T05:22:25.834Z,-2.93
2023-01-28T05:25:15.765Z,-3.04
2023-01-28T05:27:55.240Z,-3.54
2023-01-28T05:30:25.347Z,-2.91
2023-01-28T05:32:58.516Z,-3.23
2023-01-28T05:35:28.517Z,-2.87
2023-01-28T05:37:58.135Z,-2.84
2023-01-28T05:40:30.492Z,-3.28
2023-01-28T05:43:00.412Z,-3.05
2023-01-28T05:45:40.810Z,-2.92
2023-01-28T05:48:17.043Z,-2.85
2023-01-28T05:51:21.912Z,-3.06
2023-01-28T05:53:57.574Z,-2.92
2023-01-28T05:56:29.744Z,-2.99
2023-01-28T05:58:59.343Z,-3.01
2023-01-28T06:01:29.007Z,-3.16
2023-01-28T06:03:59.285Z,-2.93
2023-01-28T06:06:31.774Z,-3.03
2023-01-28T06:09:01.387Z,-3.16
2023-01-28T06:11:36.166Z,-3.06
2023-01-28T06:14:08.054Z,-3.25
2023-01-28T06:17:06.575Z,-3.03
2023-01-28T06:19:56.389Z,-2.97
2023-01-28T06:22:26.115Z,-3.03
2023-01-28T06:24:55.882Z,-3.08
2023-01-28T06:27:28.123Z,-3.09
2023-01-28T06:29:57.804Z,-3.45
2023-01-28T06:32:27.577Z,-3.04
2023-01-28T06:34:57.607Z,-3.01
2023-01-28T06:37:27.183Z,-2.98
2023-01-28T06:39:56.746Z,-3.41
2023-01-28T06:42:28.895Z,-2.94
2023-01-28T06:44:58.570Z,-2.98
2023-01-28T06:47:28.250Z,-2.95
2023-01-28T06:49:57.806Z,-3.00
2023-01-28T06:52:27.496Z,-3.00
2023-01-28T06:54:57.725Z,-3.02
2023-01-28T06:57:29.969Z,-3.02
2023-01-28T06:59:59.543Z,-3.02
2023-01-28T07:02:29.117Z,-2.91
2023-01-28T07:04:58.673Z,-3.04
2023-01-28T07:07:28.390Z,-3.19
2023-01-28T07:09:58.143Z,-2.97
2023-01-28T07:12:30.367Z,-2.74
2023-01-28T07:15:00.274Z,-2.78
2023-01-28T07:17:29.877Z,-2.79
2023-01-28T07:19:59.474Z,-2.79
2023-01-28T07:22:29.109Z,-2.85
2023-01-28T07:24:59.143Z,-2.86
2023-01-28T07:27:31.276Z,-2.99
2023-01-28T07:30:00.856Z,-2.98
2023-01-28T07:32:30.509Z,-2.85
2023-01-28T07:35:00.100Z,-3.46
2023-01-28T07:37:29.712Z,-2.76
2023-01-28T07:39:59.299Z,-3.18
2023-01-28T07:42:31.437Z,-2.78
2023-01-28T07:45:06.905Z,-2.81
2023-01-28T07:47:36.494Z,-2.81
2023-01-28T07:50:06.501Z,-2.73
2023-01-28T07:52:41.693Z,-2.72
2023-01-28T07:55:11.966Z,-2.60
2023-01-28T07:57:51.325Z,-2.76
2023-01-28T08:00:22.063Z,-2.72
2023-01-28T08:02:52.271Z,-2.63
2023-01-28T08:05:23.670Z,-2.78
2023-01-28T08:07:53.389Z,-2.57
2023-01-28T08:10:23.028Z,-2.88
2023-01-28T08:13:00.462Z,-2.53
2023-01-28T08:15:30.534Z,-3.34
2023-01-28T08:18:01.490Z,-2.44
2023-01-28T08:20:32.551Z,-2.69
2023-01-28T08:23:09.735Z,-2.93
2023-01-28T08:25:39.681Z,-2.45
2023-01-28T08:28:12.428Z,-2.48
2023-01-28T08:30:42.572Z,-2.55
2023-01-28T08:33:14.183Z,-2.32
2023-01-28T08:35:43.917Z,-2.35
2023-01-28T08:38:15.455Z,-2.25
2023-01-28T08:40:45.117Z,-2.18
2023-01-28T08:43:17.272Z,-2.34
2023-01-28T08:45:46.844Z,-3.07
2023-01-28T08:48:19.027Z,-2.38
2023-01-28T08:50:48.907Z,-2.45
2023-01-28T08:53:20.771Z,-2.28
2023-01-28T08:55:50.570Z,-2.25
2023-01-28T08:58:22.728Z,-2.23
2023-01-28T09:00:53.336Z,-2.13
2023-01-28T09:03:22.866Z,-2.54
2023-01-28T09:05:52.436Z,-2.10
2023-01-28T09:08:24.272Z,-2.82
2023-01-28T09:10:58.029Z,-2.20
2023-01-28T09:13:31.842Z,-2.12
2023-01-28T09:16:01.461Z,-2.06
2023-01-28T09:18:31.041Z,-2.15
2023-01-28T09:21:00.642Z,-2.09
2023-01-28T09:23:30.198Z,-2.28
2023-01-28T09:26:03.126Z,-1.99
2023-01-28T09:28:35.977Z,-2.75
2023-01-28T09:31:06.290Z,-2.16
2023-01-28T09:40:15.744Z,17.56
2023-01-28T09:44:31.706Z,19.42
2023-01-28T09:47:05.498Z,18.81
2023-01-28T09:49:43.345Z,18.98
2023-01-28T09:52:18.446Z,19.20
2023-01-28T09:54:51.543Z,19.33
2023-01-28T09:57:26.832Z,19.42
2023-01-28T10:00:02.159Z,19.49
2023-01-28T10:02:58.114Z,19.55
2023-01-28T10:05:40.891Z,19.58
2023-01-28T10:08:31.828Z,19.62
2023-01-28T10:11:14.938Z,19.70
2023-01-28T10:13:53.550Z,19.79
2023-01-28T10:16:34.258Z,19.83
2023-01-28T10:19:10.227Z,19.73
2023-01-28T10:21:45.755Z,19.44
2023-01-28T10:24:25.720Z,19.37
2023-01-28T10:26:56.194Z,19.36
2023-01-28T10:29:31.934Z,19.42
2023-01-28T10:53:18.367Z,19.61
2023-01-28T10:55:55.134Z,19.34
2023-01-28T10:58:28.162Z,19.30
2023-01-28T11:01:03.243Z,19.38
2023-01-28T11:03:35.325Z,19.56
2023-01-28T11:06:05.943Z,19.60
2023-01-28T11:08:47.436Z,19.58
2023-01-28T11:11:17.911Z,19.61
2023-01-28T11:13:55.637Z,19.64
2023-01-28T11:16:25.695Z,19.52
2023-01-28T11:18:58.259Z,19.42
2023-01-28T11:21:32.045Z,19.44
2023-01-28T11:24:08.532Z,19.48
2023-01-28T11:26:42.631Z,19.61
2023-01-28T11:29:33.925Z,19.66
2023-01-28T11:33:40.538Z,20.47
2023-01-28T11:36:16.123Z,20.56
2023-01-28T11:38:57.228Z,20.60
2023-01-28T11:41:30.997Z,20.61
2023-01-28T11:44:02.339Z,20.59
2023-01-28T11:46:47.989Z,20.60
2023-01-28T11:49:29.238Z,20.61
2023-01-28T11:52:05.894Z,20.60
2023-01-28T11:54:50.359Z,20.59
2023-01-28T11:57:27.295Z,20.62
2023-01-28T12:00:12.435Z,20.66
2023-01-28T12:03:00.518Z,20.67
2023-01-28T12:05:48.937Z,20.67
2023-01-28T12:08:25.444Z,20.67
2023-01-28T12:11:21.536Z,20.60
2023-01-28T12:14:08.387Z,20.70
2023-01-28T12:16:48.214Z,20.69
2023-01-28T12:19:31.500Z,20.71
2023-01-28T12:22:18.801Z,20.72
2023-01-28T12:25:05.594Z,20.71
2023-01-28T12:27:48.129Z,20.66
2023-01-28T12:30:27.538Z,20.65
2023-01-28T12:33:11.591Z,20.65
2023-01-28T12:36:02.660Z,20.67
2023-01-28T12:38:47.203Z,20.67
2023-01-28T12:41:19.557Z,20.66
2023-01-28T12:43:56.927Z,20.67
2023-01-28T12:46:46.228Z,20.69
2023-01-28T12:49:22.627Z,20.67
2023-01-28T12:52:02.788Z,20.66
2023-01-28T12:54:39.858Z,20.70
2023-01-28T12:57:15.873Z,20.66
2023-01-28T12:59:51.329Z,20.69
2023-01-28T13:02:28.565Z,20.69
2023-01-28T13:05:06.696Z,20.68
2023-01-28T13:07:41.989Z,20.67
2023-01-28T13:10:25.286Z,20.70
2023-01-28T13:12:56.065Z,20.70
2023-01-28T13:15:27.470Z,20.71
2023-01-28T13:18:01.596Z,20.72
2023-01-28T13:20:40.718Z,20.71
2023-01-28T13:23:28.075Z,20.74
2023-01-28T13:26:11.652Z,20.74
2023-01-28T13:28:41.346Z,20.77
2023-01-28T13:31:14.395Z,20.78
2023-01-28T13:33:45.054Z,20.76
2023-01-28T13:36:28.631Z,20.57
2023-01-28T13:39:07.075Z,20.73
2023-01-28T13:41:45.859Z,20.77
2023-01-28T13:44:31.570Z,20.74
2023-01-28T13:47:16.636Z,20.77
2023-01-28T13:49:49.656Z,20.76
2023-01-28T13:52:23.130Z,20.77
2023-01-28T13:54:57.885Z,20.79
2023-01-28T13:57:59.851Z,20.78
2023-01-28T14:00:39.289Z,20.77
2023-01-28T14:03:39.885Z,20.77
2023-01-28T14:06:52.830Z,20.79
2023-01-28T14:09:39.839Z,20.78
2023-01-28T14:12:35.134Z,20.78
2023-01-28T14:15:46.225Z,20.77
2023-01-28T14:18:28.143Z,20.79
2023-01-28T14:21:03.431Z,20.78
2023-01-28T14:23:33.808Z,20.79
2023-01-28T14:26:13.814Z,20.78
2023-01-28T14:28:51.657Z,20.78
2023-01-28T14:31:29.431Z,20.76
2023-01-28T14:34:08.828Z,20.79
2023-01-28T14:36:41.846Z,20.78
2023-01-28T14:39:19.425Z,20.79
2023-01-28T14:41:52.455Z,20.80
2023-01-28T14:44:31.711Z,20.79
2023-01-28T14:47:23.138Z,20.79
2023-01-28T14:50:08.136Z,20.79
2023-01-28T14:53:05.150Z,20.79
2023-01-28T14:55:43.300Z,20.80
2023-01-28T14:58:22.526Z,20.75
2023-01-28T15:00:59.637Z,20.82
2023-01-28T15:03:30.854Z,20.77
2023-01-28T15:06:16.297Z,20.83
2023-01-28T15:08:45.965Z,20.86
2023-01-28T15:11:18.650Z,20.85
2023-01-28T15:13:50.633Z,20.85
2023-01-28T15:16:23.203Z,20.84
2023-01-28T15:18:53.724Z,20.84
2023-01-28T15:21:28.349Z,20.78
2023-01-28T15:24:01.160Z,20.85
2023-01-28T15:26:33.579Z,20.75
2023-01-28T15:29:03.389Z,20.84
2023-01-28T15:31:35.117Z,20.85
2023-01-28T15:34:06.590Z,20.85
2023-01-28T15:36:38.865Z,20.85
2023-01-28T15:39:17.133Z,20.84
2023-01-28T15:41:50.415Z,20.83
2023-01-28T15:44:21.958Z,20.85
2023-01-28T15:46:51.534Z,20.85
2023-01-28T15:49:21.147Z,20.85
2023-01-28T15:51:56.689Z,20.85
2023-01-28T15:54:26.976Z,20.86
2023-01-28T15:56:56.605Z,20.78
2023-01-28T15:59:31.258Z,20.70
2023-01-28T16:02:20.717Z,20.69
2023-01-28T16:05:00.938Z,20.61
2023-01-28T16:07:36.076Z,20.63
2023-01-28T16:10:06.812Z,20.70
2023-01-28T16:12:36.371Z,20.72
2023-01-28T16:15:07.464Z,20.64
2023-01-28T16:17:43.859Z,20.74
2023-01-28T16:20:23.889Z,20.75
2023-01-28T16:22:59.064Z,20.76
2023-01-28T16:25:32.307Z,20.77
2023-01-28T16:28:03.765Z,20.78
2023-01-28T16:30:33.533Z,20.80
2023-01-28T16:33:03.079Z,20.79
2023-01-28T16:35:56.525Z,20.83
2023-01-28T16:40:56.028Z,20.86
2023-01-28T16:43:25.522Z,20.86
2023-01-28T16:45:55.389Z,20.87
2023-01-28T16:48:25.206Z,20.88
2023-01-28T16:50:54.692Z,20.88
2023-01-28T16:53:34.992Z,20.91
2023-01-28T16:56:05.231Z,20.93
2023-01-28T16:58:34.760Z,20.96
2023-01-28T17:01:04.396Z,20.97
2023-01-28T17:03:33.936Z,20.98
2023-01-28T17:06:03.431Z,20.98
2023-01-28T17:08:35.743Z,20.99
2023-01-28T17:11:05.231Z,20.98
2023-01-28T17:13:34.792Z,20.97
2023-01-28T17:16:05.247Z,20.96
2023-01-28T17:18:35.074Z,20.94
2023-01-28T17:21:05.540Z,20.92
2023-01-28T17:23:38.098Z,20.93
2023-01-28T17:26:08.892Z,20.89
2023-01-28T17:28:38.624Z,20.86
2023-01-28T17:31:08.850Z,20.93
2023-01-28T17:33:38.514Z,20.92
2023-01-28T17:36:08.470Z,20.94
2023-01-28T17:38:40.722Z,20.94
2023-01-28T17:41:11.767Z,20.97
2023-01-28T17:43:41.401Z,20.94
2023-01-28T17:46:14.695Z,20.96
2023-01-28T17:48:45.764Z,20.97
2023-01-28T17:51:16.884Z,20.98
2023-01-28T17:53:51.037Z,20.98
2023-01-28T17:56:21.992Z,21.00
2023-01-28T17:58:53.410Z,20.98
2023-01-28T18:01:23.610Z,20.98
2023-01-28T18:03:53.986Z,20.99
2023-01-28T18:06:23.594Z,21.00
2023-01-28T18:08:55.676Z,21.01
2023-01-28T18:11:25.247Z,21.01
2023-01-28T18:13:54.793Z,21.02
2023-01-28T18:16:24.972Z,21.00
2023-01-28T18:18:54.700Z,21.01
2023-01-28T18:21:43.035Z,21.00
2023-01-28T18:24:23.775Z,20.99
2023-01-28T18:26:55.434Z,20.99
2023-01-28T18:29:25.088Z,21.01
2023-01-28T18:31:56.466Z,20.99
2023-01-28T18:34:27.291Z,20.99
2023-01-28T18:36:58.010Z,21.02
2023-01-28T18:39:32.222Z,21.02
2023-01-28T18:42:02.684Z,21.04
2023-01-28T18:44:33.342Z,21.01
2023-01-28T18:47:02.987Z,21.03
2023-01-28T18:49:32.537Z,20.87
2023-01-28T18:52:02.111Z,20.93
2023-01-28T18:55:21.425Z,21.00
2023-01-28T18:57:51.118Z,21.05
2023-01-28T19:00:21.917Z,21.12
2023-01-28T19:02:51.927Z,21.27
2023-01-28T19:05:21.898Z,21.42
2023-01-28T19:07:51.462Z,21.66
2023-01-28T19:10:24.699Z,21.91
2023-01-28T19:12:55.542Z,22.17
2023-01-28T19:15:46.109Z,22.23
2023-01-28T19:18:15.742Z,22.65
2023-01-28T19:20:45.511Z,22.88
2023-01-28T19:23:15.166Z,23.04
2023-01-28T19:25:44.675Z,23.21
